createdAt,value
2022-08-26T00:00:36.981Z,1.53
2022-08-26T00:03:38.341Z,1.58
2022-08-26T00:06:29.854Z,1.80
2022-08-26T00:09:16.333Z,1.33
2022-08-26T00:12:08.662Z,1.77
2022-08-26T00:14:43.883Z,4.43
2022-08-26T00:17:31.018Z,2.60
2022-08-26T00:20:17.417Z,1.17
2022-08-26T00:22:54.339Z,1.60
2022-08-26T00:25:49.704Z,1.07
2022-08-26T00:28:44.713Z,1.67
2022-08-26T00:31:24.128Z,1.23
2022-08-26T00:34:00.874Z,1.40
2022-08-26T00:36:42.187Z,1.53
2022-08-26T00:39:48.875Z,1.17
2022-08-26T00:42:35.256Z,0.97
2022-08-26T00:45:25.276Z,0.97
2022-08-26T00:48:10.804Z,1.93
2022-08-26T00:50:58.289Z,2.53
2022-08-26T00:57:01.070Z,0.80
2022-08-26T00:59:43.234Z,1.30
2022-08-26T01:02:31.477Z,1.00
2022-08-26T01:05:36.969Z,0.85
2022-08-26T01:08:16.015Z,1.40
2022-08-26T01:10:55.835Z,1.17
2022-08-26T01:13:31.120Z,1.23
2022-08-26T01:16:26.413Z,1.40
2022-08-26T01:22:30.083Z,1.00
2022-08-26T01:28:06.466Z,1.77
2022-08-26T01:30:51.845Z,1.90
2022-08-26T01:33:31.466Z,1.37
2022-08-26T01:36:17.942Z,1.20
2022-08-26T01:39:14.972Z,1.35
2022-08-26T01:42:20.983Z,1.60
2022-08-26T01:45:07.106Z,2.33
2022-08-26T01:47:56.912Z,1.87
2022-08-26T01:50:44.246Z,1.63
2022-08-26T01:53:51.508Z,2.03
2022-08-26T01:56:36.485Z,1.00
2022-08-26T01:59:42.924Z,1.70
2022-08-26T02:02:21.629Z,1.50
2022-08-26T02:11:19.934Z,1.10
2022-08-26T02:14:16.525Z,0.73
2022-08-26T02:17:19.342Z,1.10
2022-08-26T02:20:30.190Z,1.00
2022-08-26T02:23:15.157Z,1.93
2022-08-26T02:26:04.269Z,1.17
2022-08-26T02:28:52.860Z,3.53
2022-08-26T02:31:29.479Z,1.10
2022-08-26T02:34:45.915Z,3.73
2022-08-26T02:37:45.562Z,1.47
2022-08-26T02:40:27.627Z,1.20
2022-08-26T02:43:05.042Z,1.80
2022-08-26T02:45:52.395Z,1.80
2022-08-26T02:48:36.885Z,1.40
2022-08-26T02:51:17.610Z,1.10
2022-08-26T02:54:02.975Z,2.10
2022-08-26T02:56:52.643Z,1.70
2022-08-26T02:59:31.284Z,1.30
2022-08-26T03:02:22.325Z,1.50
2022-08-26T03:05:09.572Z,1.70
2022-08-26T03:08:05.808Z,1.80
2022-08-26T03:10:50.262Z,1.73
2022-08-26T03:13:28.985Z,2.10
2022-08-26T03:16:14.922Z,1.30
2022-08-26T03:18:59.596Z,1.90
2022-08-26T03:21:48.437Z,1.70
2022-08-26T03:24:34.149Z,2.17
2022-08-26T03:27:20.504Z,1.83
2022-08-26T03:30:13.469Z,1.60
2022-08-26T03:32:59.523Z,1.90
2022-08-26T03:35:47.989Z,2.07
2022-08-26T03:38:55.730Z,1.83
2022-08-26T03:41:47.647Z,1.93
2022-08-26T03:44:27.206Z,2.37
2022-08-26T03:48:00.909Z,2.03
2022-08-26T03:53:57.929Z,1.60
2022-08-26T03:56:43.455Z,2.47
2022-08-26T03:59:37.806Z,4.88
2022-08-26T04:02:20.794Z,1.97
2022-08-26T04:05:14.205Z,2.47
2022-08-26T04:08:06.597Z,1.90
2022-08-26T04:10:46.052Z,2.40
2022-08-26T04:13:27.970Z,2.30
2022-08-26T05:03:30.630Z,3.53
2022-08-26T05:06:14.610Z,2.23
2022-08-26T05:08:54.574Z,3.07
2022-08-26T05:11:53.943Z,2.60
2022-08-26T05:14:52.355Z,2.88
2022-08-26T05:17:33.727Z,3.80
2022-08-26T05:20:48.736Z,3.13
2022-08-26T05:23:33.640Z,1.90
2022-08-26T05:26:24.982Z,2.67
2022-08-26T05:29:17.884Z,1.80
2022-08-26T05:32:22.024Z,2.70
2022-08-26T05:35:08.893Z,2.80
2022-08-26T05:38:09.279Z,3.23
2022-08-26T05:41:09.015Z,2.23
2022-08-26T05:43:55.893Z,1.93
2022-08-26T05:46:44.825Z,2.20
2022-08-26T05:49:36.246Z,2.07
2022-08-26T05:52:26.527Z,1.93
2022-08-26T05:55:44.390Z,2.30
2022-08-26T06:02:00.395Z,1.90
2022-08-26T06:04:36.925Z,1.97
2022-08-26T06:07:16.339Z,1.90
2022-08-26T06:10:01.550Z,3.40
2022-08-26T06:12:54.285Z,2.97
2022-08-26T06:15:30.832Z,2.97
2022-08-26T06:18:25.601Z,2.10
2022-08-26T06:21:05.713Z,2.30
2022-08-26T06:24:12.913Z,2.17
2022-08-26T06:27:12.054Z,1.83
2022-08-26T06:30:33.258Z,2.90
2022-08-26T06:33:22.791Z,2.20
2022-08-26T06:36:11.688Z,2.27
2022-08-26T06:39:02.291Z,2.78
2022-08-26T06:41:48.442Z,2.07
2022-08-26T06:44:38.881Z,2.00
2022-08-26T06:47:21.859Z,2.10
2022-08-26T06:50:03.214Z,1.73
2022-08-26T06:53:06.854Z,2.87
2022-08-26T06:55:57.371Z,2.30
2022-08-26T06:58:48.576Z,2.63
2022-08-26T07:01:43.044Z,2.50
2022-08-26T07:04:40.275Z,2.30
2022-08-26T07:07:32.685Z,4.10
2022-08-26T07:10:18.372Z,2.17
2022-08-26T07:13:01.063Z,2.87
2022-08-26T07:18:48.064Z,2.43
2022-08-26T07:21:40.454Z,2.07
2022-08-26T07:24:20.184Z,2.80
2022-08-26T07:27:02.946Z,2.70
2022-08-26T07:32:28.860Z,4.32
2022-08-26T07:35:17.454Z,2.33
2022-08-26T07:41:25.692Z,2.27
2022-08-26T07:44:08.528Z,2.40
2022-08-26T07:47:19.406Z,2.00
2022-08-26T07:50:15.223Z,2.03
2022-08-26T07:52:51.493Z,2.60
2022-08-26T07:55:34.611Z,2.60
2022-08-26T07:58:36.545Z,2.70
2022-08-26T08:01:25.866Z,1.83
2022-08-26T08:04:17.162Z,2.53
2022-08-26T08:07:04.839Z,2.60
2022-08-26T08:09:57.530Z,3.20
2022-08-26T08:12:35.080Z,5.23
2022-08-26T08:15:20.119Z,2.30
2022-08-26T08:18:15.669Z,2.70
2022-08-26T08:21:21.602Z,3.17
2022-08-26T08:23:59.082Z,3.87
2022-08-26T08:26:42.356Z,2.17
2022-08-26T08:29:25.965Z,3.00
2022-08-26T08:32:24.229Z,3.03
2022-08-26T08:35:10.795Z,2.75
2022-08-26T08:37:57.119Z,2.83
2022-08-26T08:40:33.135Z,3.30
2022-08-26T08:43:12.453Z,2.73
2022-08-26T08:45:51.004Z,2.97
2022-08-26T08:48:35.268Z,2.60
2022-08-26T08:51:37.657Z,2.57
2022-08-26T08:54:22.052Z,3.00
2022-08-26T08:57:08.900Z,2.30
2022-08-26T09:00:05.459Z,2.33
2022-08-26T09:03:10.569Z,9.63
2022-08-26T09:05:56.918Z,3.22
2022-08-26T09:08:43.196Z,5.13
2022-08-26T09:11:24.132Z,4.10
2022-08-26T09:14:03.988Z,4.63
2022-08-26T09:17:08.114Z,3.83
2022-08-26T09:19:50.096Z,5.20
2022-08-26T09:22:44.528Z,3.50
2022-08-26T09:25:38.989Z,3.17
2022-08-26T09:28:29.189Z,3.42
2022-08-26T09:31:19.982Z,3.50
2022-08-26T09:34:23.106Z,2.90
2022-08-26T09:40:40.381Z,2.67
2022-08-26T09:43:40.371Z,3.17
2022-08-26T09:46:25.955Z,2.10
2022-08-26T09:49:36.196Z,2.20
2022-08-26T09:52:51.587Z,2.33
2022-08-26T09:55:32.504Z,2.13
2022-08-26T09:58:24.316Z,4.67
2022-08-26T10:01:21.560Z,2.83
2022-08-26T10:09:45.547Z,1.90
2022-08-26T10:12:58.049Z,3.00
2022-08-26T10:15:50.715Z,2.43
2022-08-26T10:18:37.412Z,2.67
2022-08-26T10:21:52.258Z,1.90
2022-08-26T10:24:46.382Z,3.33
2022-08-26T10:30:54.851Z,2.00
2022-08-26T10:33:36.250Z,2.47
2022-08-26T10:37:05.143Z,2.43
2022-08-26T10:40:08.707Z,3.30
2022-08-26T10:42:59.228Z,2.60
2022-08-26T10:45:41.227Z,2.80
2022-08-26T10:48:53.857Z,2.90
2022-08-26T10:51:45.591Z,3.87
2022-08-26T10:54:27.712Z,3.20
2022-08-26T11:00:38.482Z,2.23
2022-08-26T11:03:51.655Z,4.20
2022-08-26T11:06:39.590Z,2.30
2022-08-26T11:09:26.313Z,2.10
2022-08-26T11:12:21.562Z,2.50
2022-08-26T11:15:18.847Z,2.30
2022-08-26T11:18:11.590Z,2.20
2022-08-26T11:21:10.246Z,2.13
2022-08-26T11:23:53.636Z,3.27
2022-08-26T11:26:56.222Z,2.37
2022-08-26T11:30:13.292Z,2.30
2022-08-26T11:33:06.013Z,2.20
2022-08-26T11:36:00.655Z,2.00
2022-08-26T11:39:02.859Z,2.73
2022-08-26T11:41:52.782Z,2.87
2022-08-26T11:44:35.488Z,1.77
2022-08-26T11:47:13.958Z,3.03
2022-08-26T11:49:51.522Z,2.20
2022-08-26T11:52:31.478Z,3.20
2022-08-26T11:55:47.329Z,2.30
2022-08-26T11:58:45.971Z,2.60
2022-08-26T12:01:44.801Z,3.25
2022-08-26T12:04:48.266Z,2.50
2022-08-26T12:07:37.654Z,2.67
2022-08-26T12:10:36.751Z,3.07
2022-08-26T12:13:36.410Z,3.30
2022-08-26T12:16:13.809Z,3.22
2022-08-26T12:18:57.041Z,2.93
2022-08-26T12:21:45.455Z,3.67
2022-08-26T12:24:33.434Z,2.90
2022-08-26T12:27:29.741Z,3.30
2022-08-26T12:30:14.090Z,3.93
2022-08-26T12:33:25.690Z,2.83
2022-08-26T12:36:19.629Z,3.57
2022-08-26T12:39:24.208Z,3.13
2022-08-26T12:42:01.024Z,3.80
2022-08-26T12:44:58.097Z,3.37
2022-08-26T12:47:43.976Z,3.83
2022-08-26T12:50:36.903Z,3.87
2022-08-26T12:53:33.450Z,3.80
2022-08-26T12:56:24.466Z,4.27
2022-08-26T12:59:24.150Z,4.10
2022-08-26T13:02:00.309Z,3.40
2022-08-26T13:04:58.694Z,3.30
2022-08-26T13:07:49.572Z,2.78
2022-08-26T13:10:43.534Z,2.97
2022-08-26T13:13:34.954Z,5.03
2022-08-26T13:16:24.121Z,4.60
2022-08-26T13:19:10.597Z,4.10
2022-08-26T13:22:12.641Z,4.40
2022-08-26T13:25:00.263Z,3.87
2022-08-26T13:31:00.065Z,4.73
2022-08-26T13:33:40.404Z,5.47
2022-08-26T13:36:21.161Z,5.37
2022-08-26T13:38:55.643Z,5.03
2022-08-26T13:41:47.262Z,6.47
2022-08-26T13:47:31.280Z,6.43
2022-08-26T13:50:07.446Z,7.17
2022-08-26T13:52:42.482Z,6.20
2022-08-26T13:55:40.317Z,5.73
2022-08-26T13:58:21.032Z,6.00
2022-08-26T14:01:18.495Z,4.47
2022-08-26T14:03:55.101Z,4.70
2022-08-26T14:06:49.789Z,4.50
2022-08-26T14:09:28.431Z,6.90
2022-08-26T14:12:13.495Z,5.50
2022-08-26T14:15:21.267Z,5.70
2022-08-26T14:17:59.010Z,5.67
2022-08-26T14:20:36.394Z,5.40
2022-08-26T14:23:21.087Z,5.43
2022-08-26T14:26:00.332Z,5.43
2022-08-26T14:28:41.772Z,4.95
2022-08-26T14:31:18.334Z,5.17
2022-08-26T14:34:03.647Z,5.50
2022-08-26T14:36:45.069Z,5.07
2022-08-26T14:39:46.588Z,5.73
2022-08-26T14:42:44.727Z,5.10
2022-08-26T14:45:55.342Z,5.37
2022-08-26T14:48:43.846Z,5.37
2022-08-26T14:51:22.520Z,5.47
2022-08-26T14:57:04.346Z,5.03
2022-08-26T14:59:49.615Z,4.93
2022-08-26T15:02:37.433Z,4.43
2022-08-26T15:08:12.207Z,4.97
2022-08-26T15:10:49.775Z,4.85
2022-08-26T15:13:42.275Z,4.80
2022-08-26T15:16:22.613Z,4.63
2022-08-26T15:19:22.254Z,4.60
2022-08-26T15:22:09.973Z,4.87
2022-08-26T15:24:59.959Z,4.43
2022-08-26T15:27:46.757Z,4.70
2022-08-26T15:33:17.623Z,4.97
2022-08-26T15:35:58.590Z,4.38
2022-08-26T15:38:41.028Z,5.07
2022-08-26T15:41:28.780Z,4.37
2022-08-26T15:44:15.945Z,5.73
2022-08-26T15:47:06.896Z,5.07
2022-08-26T15:52:23.052Z,4.93
2022-08-26T15:57:57.334Z,6.63
2022-08-26T16:00:36.726Z,6.07
2022-08-26T16:03:31.125Z,5.97
2022-08-26T16:06:10.646Z,5.80
2022-08-26T16:08:48.061Z,5.67
2022-08-26T16:11:44.639Z,6.33
2022-08-26T16:14:20.854Z,5.30
2022-08-26T16:17:01.654Z,5.73
2022-08-26T16:19:51.928Z,6.03
2022-08-26T16:22:29.704Z,5.37
2022-08-26T16:25:16.003Z,5.13
2022-08-26T16:28:11.564Z,6.07
2022-08-26T16:30:47.588Z,6.23
2022-08-26T16:33:39.200Z,5.90
2022-08-26T16:36:23.012Z,6.57
2022-08-26T16:39:04.953Z,6.37
2022-08-26T16:42:14.269Z,5.90
2022-08-26T16:45:03.535Z,6.43
2022-08-26T16:47:48.882Z,7.00
2022-08-26T16:50:38.983Z,6.83
2022-08-26T16:53:24.952Z,6.90
2022-08-26T16:56:16.240Z,6.33
2022-08-26T16:58:58.667Z,8.00
2022-08-26T17:01:35.897Z,7.87
2022-08-26T17:07:09.008Z,6.73
2022-08-26T17:09:58.061Z,7.93
2022-08-26T17:12:37.136Z,7.65
2022-08-26T17:18:13.197Z,5.60
2022-08-26T17:20:54.583Z,6.80
2022-08-26T17:23:49.299Z,6.73
2022-08-26T17:26:33.338Z,6.50
2022-08-26T17:29:13.472Z,6.80
2022-08-26T17:31:51.858Z,7.10
2022-08-26T17:34:35.504Z,7.67
2022-08-26T17:37:29.910Z,5.43
2022-08-26T17:40:10.087Z,5.67
2022-08-26T17:42:51.034Z,4.70
2022-08-26T17:51:15.314Z,4.50
2022-08-26T17:53:57.563Z,4.37
2022-08-26T17:56:42.251Z,5.43
2022-08-26T17:59:37.130Z,5.37
2022-08-26T18:02:36.084Z,5.30
2022-08-26T18:05:22.170Z,5.47
2022-08-26T18:08:03.374Z,4.70
2022-08-26T18:10:47.994Z,4.80
2022-08-26T18:13:27.289Z,5.80
2022-08-26T18:16:12.534Z,5.33
2022-08-26T18:18:55.465Z,4.57
2022-08-26T18:21:41.371Z,4.37
2022-08-26T18:24:25.666Z,4.43
2022-08-26T18:27:13.347Z,4.63
2022-08-26T18:30:01.313Z,5.10
2022-08-26T18:32:44.355Z,6.23
2022-08-26T18:35:20.595Z,4.73
2022-08-26T18:38:10.418Z,5.67
2022-08-26T18:40:53.215Z,5.13
2022-08-26T18:44:01.399Z,5.73
2022-08-26T18:46:54.241Z,5.10
2022-08-26T18:49:38.869Z,4.30
2022-08-26T18:52:32.528Z,4.90
2022-08-26T18:55:22.298Z,4.27
2022-08-26T18:58:06.994Z,4.13
2022-08-26T19:01:02.280Z,4.03
2022-08-26T19:03:44.557Z,4.13
2022-08-26T19:06:39.848Z,4.53
2022-08-26T19:09:18.443Z,5.67
2022-08-26T19:11:58.939Z,5.35
2022-08-26T19:14:50.377Z,6.13
2022-08-26T19:17:38.753Z,5.80
2022-08-26T19:20:33.782Z,6.22
2022-08-26T19:23:37.469Z,5.33
2022-08-26T19:26:22.429Z,5.77
2022-08-26T19:29:01.024Z,6.40
2022-08-26T19:31:52.636Z,6.00
2022-08-26T19:34:35.754Z,4.67
2022-08-26T19:37:11.389Z,6.07
2022-08-26T19:39:59.128Z,6.00
2022-08-26T19:42:39.752Z,6.33
2022-08-26T19:45:25.060Z,6.83
2022-08-26T19:48:07.020Z,6.27
2022-08-26T19:53:34.434Z,6.63
2022-08-26T19:56:14.105Z,6.17
2022-08-26T19:59:04.111Z,6.17
2022-08-26T20:02:11.088Z,6.67
2022-08-26T20:04:45.630Z,6.93
2022-08-26T20:07:42.854Z,6.47
2022-08-26T20:10:38.280Z,6.80
2022-08-26T20:13:34.844Z,5.80
2022-08-26T20:16:16.709Z,6.33
2022-08-26T20:19:29.238Z,5.90
2022-08-26T20:22:14.052Z,6.67
2022-08-26T20:24:51.793Z,6.00
2022-08-26T20:27:52.101Z,6.20
2022-08-26T20:30:45.729Z,6.97
2022-08-26T20:33:46.180Z,7.27
2022-08-26T20:36:25.860Z,6.23
2022-08-26T20:39:14.065Z,7.27
2022-08-26T20:41:51.149Z,6.18
2022-08-26T20:44:24.535Z,6.00
2022-08-26T20:47:08.078Z,7.40
2022-08-26T20:49:46.913Z,6.40
2022-08-26T20:52:29.175Z,5.97
2022-08-26T20:55:15.579Z,5.47
2022-08-26T20:57:54.969Z,5.93
2022-08-26T21:00:31.486Z,5.87
2022-08-26T21:03:45.270Z,5.87
2022-08-26T21:06:52.340Z,7.77
2022-08-26T21:09:45.298Z,6.53
2022-08-26T21:12:36.405Z,7.77
2022-08-26T21:15:22.809Z,6.43
2022-08-26T21:18:10.116Z,7.20
2022-08-26T21:20:59.212Z,6.75
2022-08-26T21:23:42.971Z,7.40
2022-08-26T21:26:32.038Z,7.73
2022-08-26T21:29:20.013Z,9.87
2022-08-26T21:32:18.303Z,9.23
2022-08-26T21:35:11.451Z,8.35
2022-08-26T21:37:57.722Z,8.07
2022-08-26T21:40:36.784Z,9.00
2022-08-26T21:43:33.644Z,6.97
2022-08-26T21:46:30.090Z,9.20
2022-08-26T21:49:21.734Z,8.57
2022-08-26T21:52:06.825Z,8.50
2022-08-26T21:54:57.614Z,8.03
2022-08-26T21:58:12.903Z,8.97
2022-08-26T22:00:59.338Z,9.03
2022-08-26T22:03:47.671Z,8.80
2022-08-26T22:06:32.250Z,8.60
2022-08-26T22:09:19.819Z,8.27
2022-08-26T22:12:14.541Z,8.77
2022-08-26T22:15:03.867Z,8.13
2022-08-26T22:17:53.400Z,7.03
2022-08-26T22:23:34.234Z,7.97
2022-08-26T22:26:16.111Z,7.18
2022-08-26T22:29:06.591Z,6.50
2022-08-26T22:31:54.305Z,6.47
2022-08-26T22:34:47.952Z,6.93
2022-08-26T22:37:34.373Z,6.00
2022-08-26T22:40:13.342Z,7.13
2022-08-26T22:43:00.173Z,6.88
2022-08-26T22:45:39.196Z,5.37
2022-08-26T22:48:16.474Z,4.07
2022-08-26T22:50:58.259Z,5.27
2022-08-26T22:53:49.075Z,4.93
2022-08-26T22:56:27.610Z,4.97
2022-08-26T22:59:22.115Z,4.00
2022-08-26T23:02:26.485Z,4.70
2022-08-26T23:05:15.160Z,4.40
2022-08-26T23:08:01.081Z,6.15
2022-08-26T23:10:42.235Z,5.20
2022-08-26T23:13:27.651Z,5.50
2022-08-26T23:16:12.018Z,5.87
2022-08-26T23:18:55.220Z,7.30
2022-08-26T23:21:40.628Z,8.30
2022-08-26T23:24:27.494Z,6.43
2022-08-26T23:27:02.179Z,5.10
2022-08-26T23:29:48.389Z,5.20
2022-08-26T23:32:41.483Z,5.03
2022-08-26T23:35:23.235Z,5.53
2022-08-26T23:38:04.425Z,5.63
2022-08-26T23:40:46.433Z,5.63
2022-08-26T23:43:39.326Z,5.63
2022-08-26T23:46:21.518Z,4.47
2022-08-26T23:49:00.701Z,4.93
2022-08-26T23:54:37.208Z,5.30
